ADDS METAR Data INFO
IDs: Format: Raw Decoded Include TAF

Data at: 1611 UTC 19 Oct 2017

METAR for:K6B9 (Skaneateles Arpt, NY, US)
Text:K6B9 191555Z AUTO 22012G21KT 180V240 10SM CLR 18/07 A3008 RMK AO2
Temperature: 18.0°C ( 64°F)
Dewpoint: 7.0°C ( 45°F) [RH = 49%]
Pressure (altimeter):30.08 inches Hg (1018.7 mb)
Winds:from the SW (220 degrees) at 14 MPH (12 knots; 6.2 m/s) gusting to 24 MPH (21 knots; 10.8 m/s)
Visibility:10 or more sm (16+ km)
Ceiling:at least 12,000 feet AGL
Clouds:sky clear below 12,000 feet AGL
QC Flag:automated observation with no human augmentation
Text:K6B9 191535Z AUTO 22014G19KT 10SM CLR 17/07 A3009 RMK AO2
Temperature: 17.0°C ( 63°F)
Dewpoint: 7.0°C ( 45°F) [RH = 52%]
Pressure (altimeter):30.09 inches Hg (1019.0 mb)
Winds:from the SW (220 degrees) at 16 MPH (14 knots; 7.2 m/s) gusting to 22 MPH (19 knots; 9.8 m/s)
Visibility:10 or more sm (16+ km)
Ceiling:at least 12,000 feet AGL
Clouds:sky clear below 12,000 feet AGL
QC Flag:automated observation with no human augmentation
Text:K6B9 191515Z AUTO 21013KT 10SM CLR 17/07 A3009 RMK AO2
Temperature: 17.0°C ( 63°F)
Dewpoint: 7.0°C ( 45°F) [RH = 52%]
Pressure (altimeter):30.09 inches Hg (1019.0 mb)
Winds:from the SSW (210 degrees) at 15 MPH (13 knots; 6.7 m/s)
Visibility:10 or more sm (16+ km)
Ceiling:at least 12,000 feet AGL
Clouds:sky clear below 12,000 feet AGL
QC Flag:automated observation with no human augmentation
Text:K6B9 191455Z AUTO 22013G18KT 10SM CLR 17/07 A3009 RMK AO2
Temperature: 17.0°C ( 63°F)
Dewpoint: 7.0°C ( 45°F) [RH = 52%]
Pressure (altimeter):30.09 inches Hg (1019.0 mb)
Winds:from the SW (220 degrees) at 15 MPH (13 knots; 6.7 m/s) gusting to 21 MPH (18 knots; 9.3 m/s)
Visibility:10 or more sm (16+ km)
Ceiling:at least 12,000 feet AGL
Clouds:sky clear below 12,000 feet AGL
QC Flag:automated observation with no human augmentation
Text:K6B9 191435Z AUTO 21008G18KT 10SM CLR 17/07 A3011 RMK AO2
Temperature: 17.0°C ( 63°F)
Dewpoint: 7.0°C ( 45°F) [RH = 52%]
Pressure (altimeter):30.11 inches Hg (1019.7 mb)
Winds:from the SSW (210 degrees) at 9 MPH (8 knots; 4.1 m/s) gusting to 21 MPH (18 knots; 9.3 m/s)
Visibility:10 or more sm (16+ km)
Ceiling:at least 12,000 feet AGL
Clouds:sky clear below 12,000 feet AGL
QC Flag:automated observation with no human augmentation
Text:K6B9 191415Z AUTO 21013G21KT 10SM CLR 16/06 A3010 RMK AO2
Temperature: 16.0°C ( 61°F)
Dewpoint: 6.0°C ( 43°F) [RH = 51%]
Pressure (altimeter):30.10 inches Hg (1019.4 mb)
Winds:from the SSW (210 degrees) at 15 MPH (13 knots; 6.7 m/s) gusting to 24 MPH (21 knots; 10.8 m/s)
Visibility:10 or more sm (16+ km)
Ceiling:at least 12,000 feet AGL
Clouds:sky clear below 12,000 feet AGL
QC Flag:automated observation with no human augmentation
Text:K6B9 191355Z AUTO 21008G14KT 180V250 10SM CLR 16/06 A3012 RMK AO2
Temperature: 16.0°C ( 61°F)
Dewpoint: 6.0°C ( 43°F) [RH = 51%]
Pressure (altimeter):30.12 inches Hg (1020.1 mb)
Winds:from the SSW (210 degrees) at 9 MPH (8 knots; 4.1 m/s) gusting to 16 MPH (14 knots; 7.2 m/s)
Visibility:10 or more sm (16+ km)
Ceiling:at least 12,000 feet AGL
Clouds:sky clear below 12,000 feet AGL
QC Flag:automated observation with no human augmentation
Text:K6B9 191335Z AUTO VRB05G11KT 10SM CLR 15/06 A3011 RMK AO2
Temperature: 15.0°C ( 59°F)
Dewpoint: 6.0°C ( 43°F) [RH = 55%]
Pressure (altimeter):30.11 inches Hg (1019.7 mb)
Winds:variable direction winds at 6 MPH (5 knots; 2.6 m/s) gusting to 13 MPH (11 knots; 5.7 m/s)
Visibility:10 or more sm (16+ km)
Ceiling:at least 12,000 feet AGL
Clouds:sky clear below 12,000 feet AGL
QC Flag:automated observation with no human augmentation
Text:K6B9 191315Z AUTO VRB06G12KT 160V230 10SM CLR 15/06 A3013 RMK AO2
Temperature: 15.0°C ( 59°F)
Dewpoint: 6.0°C ( 43°F) [RH = 55%]
Pressure (altimeter):30.13 inches Hg (1020.4 mb)
Winds:variable direction winds at 7 MPH (6 knots; 3.1 m/s) gusting to 14 MPH (12 knots; 6.2 m/s)
Visibility:10 or more sm (16+ km)
Ceiling:at least 12,000 feet AGL
Clouds:sky clear below 12,000 feet AGL
QC Flag:automated observation with no human augmentation
Text:K6B9 191255Z AUTO 20007KT 160V230 10SM CLR 14/05 A3013 RMK AO2
Temperature: 14.0°C ( 57°F)
Dewpoint: 5.0°C ( 41°F) [RH = 55%]
Pressure (altimeter):30.13 inches Hg (1020.4 mb)
Winds:from the SSW (200 degrees) at 8 MPH (7 knots; 3.6 m/s)
Visibility:10 or more sm (16+ km)
Ceiling:at least 12,000 feet AGL
Clouds:sky clear below 12,000 feet AGL
QC Flag:automated observation with no human augmentation
Text:K6B9 191235Z AUTO VRB04G10KT 10SM CLR 13/05 A3012 RMK AO2
Temperature: 13.0°C ( 55°F)
Dewpoint: 5.0°C ( 41°F) [RH = 58%]
Pressure (altimeter):30.12 inches Hg (1020.1 mb)
Winds:variable direction winds at 5 MPH (4 knots; 2.1 m/s) gusting to 12 MPH (10 knots; 5.1 m/s)
Visibility:10 or more sm (16+ km)
Ceiling:at least 12,000 feet AGL
Clouds:sky clear below 12,000 feet AGL
QC Flag:automated observation with no human augmentation
Text:K6B9 191215Z AUTO 21005G10KT CLR 13/05 A3013 RMK AO2
Temperature: 13.0°C ( 55°F)
Dewpoint: 5.0°C ( 41°F) [RH = 58%]
Pressure (altimeter):30.13 inches Hg (1020.4 mb)
Winds:from the SSW (210 degrees) at 6 MPH (5 knots; 2.6 m/s) gusting to 12 MPH (10 knots; 5.1 m/s)
Ceiling:at least 12,000 feet AGL
Clouds:sky clear below 12,000 feet AGL
QC Flag:automated observation with no human augmentation
Text:K6B9 191155Z AUTO VRB04KT 10SM CLR 12/05 A3012 RMK AO2
Temperature: 12.0°C ( 54°F)
Dewpoint: 5.0°C ( 41°F) [RH = 62%]
Pressure (altimeter):30.12 inches Hg (1020.1 mb)
Winds:variable direction winds at 5 MPH (4 knots; 2.1 m/s)
Visibility:10 or more sm (16+ km)
Ceiling:at least 12,000 feet AGL
Clouds:sky clear below 12,000 feet AGL
QC Flag:automated observation with no human augmentation
Text:K6B9 191135Z AUTO 20004KT 10SM CLR 12/05 A3013 RMK AO2
Temperature: 12.0°C ( 54°F)
Dewpoint: 5.0°C ( 41°F) [RH = 62%]
Pressure (altimeter):30.13 inches Hg (1020.4 mb)
Winds:from the SSW (200 degrees) at 5 MPH (4 knots; 2.1 m/s)
Visibility:10 or more sm (16+ km)
Ceiling:at least 12,000 feet AGL
Clouds:sky clear below 12,000 feet AGL
QC Flag:automated observation with no human augmentation
Text:K6B9 191115Z AUTO 18005KT 10SM 12/05 A3013 RMK AO2
Temperature: 12.0°C ( 54°F)
Dewpoint: 5.0°C ( 41°F) [RH = 62%]
Pressure (altimeter):30.13 inches Hg (1020.4 mb)
Winds:from the S (180 degrees) at 6 MPH (5 knots; 2.6 m/s)
Visibility:10 or more sm (16+ km)
QC Flag:automated observation with no human augmentation
Text:K6B9 191055Z AUTO VRB04KT 10SM 12/05 A3013 RMK AO2
Temperature: 12.0°C ( 54°F)
Dewpoint: 5.0°C ( 41°F) [RH = 62%]
Pressure (altimeter):30.13 inches Hg (1020.4 mb)
Winds:variable direction winds at 5 MPH (4 knots; 2.1 m/s)
Visibility:10 or more sm (16+ km)
QC Flag:automated observation with no human augmentation
Text:K6B9 191035Z AUTO VRB04KT 10SM CLR 12/06 A3014 RMK AO2
Temperature: 12.0°C ( 54°F)
Dewpoint: 6.0°C ( 43°F) [RH = 67%]
Pressure (altimeter):30.14 inches Hg (1020.7 mb)
Winds:variable direction winds at 5 MPH (4 knots; 2.1 m/s)
Visibility:10 or more sm (16+ km)
Ceiling:at least 12,000 feet AGL
Clouds:sky clear below 12,000 feet AGL
QC Flag:automated observation with no human augmentation
Text:K6B9 191015Z AUTO 22004G10KT 10SM CLR 12/06 A3014 RMK AO2
Temperature: 12.0°C ( 54°F)
Dewpoint: 6.0°C ( 43°F) [RH = 67%]
Pressure (altimeter):30.14 inches Hg (1020.7 mb)
Winds:from the SW (220 degrees) at 5 MPH (4 knots; 2.1 m/s) gusting to 12 MPH (10 knots; 5.1 m/s)
Visibility:10 or more sm (16+ km)
Ceiling:at least 12,000 feet AGL
Clouds:sky clear below 12,000 feet AGL
QC Flag:automated observation with no human augmentation
Text:K6B9 190955Z AUTO 20005G11KT 10SM CLR 13/06 A3014 RMK AO2
Temperature: 13.0°C ( 55°F)
Dewpoint: 6.0°C ( 43°F) [RH = 62%]
Pressure (altimeter):30.14 inches Hg (1020.7 mb)
Winds:from the SSW (200 degrees) at 6 MPH (5 knots; 2.6 m/s) gusting to 13 MPH (11 knots; 5.7 m/s)
Visibility:10 or more sm (16+ km)
Ceiling:at least 12,000 feet AGL
Clouds:sky clear below 12,000 feet AGL
QC Flag:automated observation with no human augmentation
Text:K6B9 190935Z AUTO 20006KT 10SM CLR 13/06 A3014 RMK AO2
Temperature: 13.0°C ( 55°F)
Dewpoint: 6.0°C ( 43°F) [RH = 62%]
Pressure (altimeter):30.14 inches Hg (1020.7 mb)
Winds:from the SSW (200 degrees) at 7 MPH (6 knots; 3.1 m/s)
Visibility:10 or more sm (16+ km)
Ceiling:at least 12,000 feet AGL
Clouds:sky clear below 12,000 feet AGL
QC Flag:automated observation with no human augmentation
Text:K6B9 190915Z AUTO VRB06G14KT 10SM CLR 14/06 A3014 RMK AO2
Temperature: 14.0°C ( 57°F)
Dewpoint: 6.0°C ( 43°F) [RH = 58%]
Pressure (altimeter):30.14 inches Hg (1020.7 mb)
Winds:variable direction winds at 7 MPH (6 knots; 3.1 m/s) gusting to 16 MPH (14 knots; 7.2 m/s)
Visibility:10 or more sm (16+ km)
Ceiling:at least 12,000 feet AGL
Clouds:sky clear below 12,000 feet AGL
QC Flag:automated observation with no human augmentation
Text:K6B9 190855Z AUTO 18005KT 10SM CLR 13/06 A3014 RMK AO2
Temperature: 13.0°C ( 55°F)
Dewpoint: 6.0°C ( 43°F) [RH = 62%]
Pressure (altimeter):30.14 inches Hg (1020.7 mb)
Winds:from the S (180 degrees) at 6 MPH (5 knots; 2.6 m/s)
Visibility:10 or more sm (16+ km)
Ceiling:at least 12,000 feet AGL
Clouds:sky clear below 12,000 feet AGL
QC Flag:automated observation with no human augmentation
Text:K6B9 190835Z AUTO VRB04G10KT 10SM CLR 13/06 A3015 RMK AO2
Temperature: 13.0°C ( 55°F)
Dewpoint: 6.0°C ( 43°F) [RH = 62%]
Pressure (altimeter):30.15 inches Hg (1021.1 mb)
Winds:variable direction winds at 5 MPH (4 knots; 2.1 m/s) gusting to 12 MPH (10 knots; 5.1 m/s)
Visibility:10 or more sm (16+ km)
Ceiling:at least 12,000 feet AGL
Clouds:sky clear below 12,000 feet AGL
QC Flag:automated observation with no human augmentation
Text:K6B9 190815Z AUTO VRB05KT 10SM CLR 13/06 A3015 RMK AO2
Temperature: 13.0°C ( 55°F)
Dewpoint: 6.0°C ( 43°F) [RH = 62%]
Pressure (altimeter):30.15 inches Hg (1021.1 mb)
Winds:variable direction winds at 6 MPH (5 knots; 2.6 m/s)
Visibility:10 or more sm (16+ km)
Ceiling:at least 12,000 feet AGL
Clouds:sky clear below 12,000 feet AGL
QC Flag:automated observation with no human augmentation
Text:K6B9 190755Z AUTO 20005G10KT 10SM CLR 13/06 A3015 RMK AO2
Temperature: 13.0°C ( 55°F)
Dewpoint: 6.0°C ( 43°F) [RH = 62%]
Pressure (altimeter):30.15 inches Hg (1021.1 mb)
Winds:from the SSW (200 degrees) at 6 MPH (5 knots; 2.6 m/s) gusting to 12 MPH (10 knots; 5.1 m/s)
Visibility:10 or more sm (16+ km)
Ceiling:at least 12,000 feet AGL
Clouds:sky clear below 12,000 feet AGL
QC Flag:automated observation with no human augmentation
Text:K6B9 190735Z AUTO VRB03KT 10SM CLR 14/06 A3015 RMK AO2
Temperature: 14.0°C ( 57°F)
Dewpoint: 6.0°C ( 43°F) [RH = 58%]
Pressure (altimeter):30.15 inches Hg (1021.1 mb)
Winds:variable direction winds at 3 MPH (3 knots; 1.5 m/s)
Visibility:10 or more sm (16+ km)
Ceiling:at least 12,000 feet AGL
Clouds:sky clear below 12,000 feet AGL
QC Flag:automated observation with no human augmentation
Text:K6B9 190715Z AUTO VRB04KT 10SM CLR 14/06 A3015 RMK AO2
Temperature: 14.0°C ( 57°F)
Dewpoint: 6.0°C ( 43°F) [RH = 58%]
Pressure (altimeter):30.15 inches Hg (1021.1 mb)
Winds:variable direction winds at 5 MPH (4 knots; 2.1 m/s)
Visibility:10 or more sm (16+ km)
Ceiling:at least 12,000 feet AGL
Clouds:sky clear below 12,000 feet AGL
QC Flag:automated observation with no human augmentation
Text:K6B9 190655Z AUTO VRB05KT 10SM 14/06 A3016 RMK AO2
Temperature: 14.0°C ( 57°F)
Dewpoint: 6.0°C ( 43°F) [RH = 58%]
Pressure (altimeter):30.16 inches Hg (1021.4 mb)
Winds:variable direction winds at 6 MPH (5 knots; 2.6 m/s)
Visibility:10 or more sm (16+ km)
QC Flag:automated observation with no human augmentation
Text:K6B9 190635Z AUTO VRB04KT 10SM 14/06 A3016 RMK AO2
Temperature: 14.0°C ( 57°F)
Dewpoint: 6.0°C ( 43°F) [RH = 58%]
Pressure (altimeter):30.16 inches Hg (1021.4 mb)
Winds:variable direction winds at 5 MPH (4 knots; 2.1 m/s)
Visibility:10 or more sm (16+ km)
QC Flag:automated observation with no human augmentation
Text:K6B9 190615Z AUTO VRB05G11KT 10SM 14/06 A3016 RMK AO2
Temperature: 14.0°C ( 57°F)
Dewpoint: 6.0°C ( 43°F) [RH = 58%]
Pressure (altimeter):30.16 inches Hg (1021.4 mb)
Winds:variable direction winds at 6 MPH (5 knots; 2.6 m/s) gusting to 13 MPH (11 knots; 5.7 m/s)
Visibility:10 or more sm (16+ km)
QC Flag:automated observation with no human augmentation
Text:K6B9 190555Z AUTO VRB06G13KT 10SM 14/07 A3016 RMK AO2
Temperature: 14.0°C ( 57°F)
Dewpoint: 7.0°C ( 45°F) [RH = 63%]
Pressure (altimeter):30.16 inches Hg (1021.4 mb)
Winds:variable direction winds at 7 MPH (6 knots; 3.1 m/s) gusting to 15 MPH (13 knots; 6.7 m/s)
Visibility:10 or more sm (16+ km)
QC Flag:automated observation with no human augmentation
Text:K6B9 190535Z AUTO 19006G12KT 10SM 14/07 A3016 RMK AO2
Temperature: 14.0°C ( 57°F)
Dewpoint: 7.0°C ( 45°F) [RH = 63%]
Pressure (altimeter):30.16 inches Hg (1021.4 mb)
Winds:from the S (190 degrees) at 7 MPH (6 knots; 3.1 m/s) gusting to 14 MPH (12 knots; 6.2 m/s)
Visibility:10 or more sm (16+ km)
QC Flag:automated observation with no human augmentation
Text:K6B9 190515Z AUTO VRB04G11KT 10SM 14/07 A3017 RMK AO2
Temperature: 14.0°C ( 57°F)
Dewpoint: 7.0°C ( 45°F) [RH = 63%]
Pressure (altimeter):30.17 inches Hg (1021.8 mb)
Winds:variable direction winds at 5 MPH (4 knots; 2.1 m/s) gusting to 13 MPH (11 knots; 5.7 m/s)
Visibility:10 or more sm (16+ km)
QC Flag:automated observation with no human augmentation
Text:K6B9 190455Z AUTO VRB05G10KT 10SM 15/07 A3017 RMK AO2
Temperature: 15.0°C ( 59°F)
Dewpoint: 7.0°C ( 45°F) [RH = 59%]
Pressure (altimeter):30.17 inches Hg (1021.8 mb)
Winds:variable direction winds at 6 MPH (5 knots; 2.6 m/s) gusting to 12 MPH (10 knots; 5.1 m/s)
Visibility:10 or more sm (16+ km)
QC Flag:automated observation with no human augmentation
Text:K6B9 190435Z AUTO 19006G11KT 10SM 15/07 A3017 RMK AO2
Temperature: 15.0°C ( 59°F)
Dewpoint: 7.0°C ( 45°F) [RH = 59%]
Pressure (altimeter):30.17 inches Hg (1021.8 mb)
Winds:from the S (190 degrees) at 7 MPH (6 knots; 3.1 m/s) gusting to 13 MPH (11 knots; 5.7 m/s)
Visibility:10 or more sm (16+ km)
QC Flag:automated observation with no human augmentation
Text:K6B9 190415Z AUTO 20007KT 10SM 15/07 A3018 RMK AO2
Temperature: 15.0°C ( 59°F)
Dewpoint: 7.0°C ( 45°F) [RH = 59%]
Pressure (altimeter):30.18 inches Hg (1022.1 mb)
Winds:from the SSW (200 degrees) at 8 MPH (7 knots; 3.6 m/s)
Visibility:10 or more sm (16+ km)
QC Flag:automated observation with no human augmentation